This is the latest recevied weather packets stored in our database for station/object WX7EM. If no packets are shown the sender has not sent any weather packets the latest 1 day(s).
| Time | Temp. | Humidity | Pressure | Rain* | Wind** | Luminosity | Snow |
|---|---|---|---|---|---|---|---|
| 1778012989 | 16.11° C | 77% | 1015.7 hPa | 0 mm | 0.89 m/s, 192° | 302 W/m² | - |
| 1778012687 | 16.11° C | 75% | 1015.7 hPa | 0 mm | 1.34 m/s, 272° | 302 W/m² | - |
| 1778012382 | 15.56° C | 77% | 1015.7 hPa | 0 mm | 1.34 m/s, 241° | 296 W/m² | - |
| 1778012079 | 16.11° C | 76% | 1015.8 hPa | 0 mm | 0.45 m/s, 168° | 295 W/m² | - |
| 1778011778 | 15.56° C | 77% | 1016 hPa | 0 mm | 0.89 m/s, 245° | 308 W/m² | - |
| 1778011475 | 15.56° C | 77% | 1015.9 hPa | 0 mm | 0.45 m/s, 141° | 316 W/m² | - |
| 1778011170 | 15.56° C | 78% | 1015.8 hPa | 0 mm | 0.45 m/s, 134° | 322 W/m² | - |
| 1778010868 | 15.56° C | 79% | 1015.9 hPa | 0 mm | 0.45 m/s, 226° | 307 W/m² | - |
| 1778010565 | 15° C | 78% | 1016 hPa | 0 mm | 1.79 m/s, 279° | 281 W/m² | - |
| 1778010263 | 15° C | 80% | 1016 hPa | 0 mm | 0.45 m/s, 252° | 265 W/m² | - |
| 1778009962 | 15° C | 78% | 1016.1 hPa | 0 mm | 1.34 m/s, 274° | 257 W/m² | - |
| 1778009660 | 15° C | 78% | 1015.9 hPa | 0 mm | 1.34 m/s, 272° | 250 W/m² | - |
| 1778009358 | 15° C | 79% | 1015.8 hPa | 0 mm | 0.45 m/s, 171° | 255 W/m² | - |
| 1778009056 | 15.56° C | 79% | 1015.9 hPa | 0 mm | 0.45 m/s, 223° | 247 W/m² | - |
| 1778008753 | 15.56° C | 78% | 1016.1 hPa | 0 mm | 0.89 m/s, 255° | 235 W/m² | - |
| 1778008452 | 15.56° C | 76% | 1016 hPa | 0 mm | 0.45 m/s, 143° | 236 W/m² | - |
| 1778008148 | 15.56° C | 77% | 1015.8 hPa | 0 mm | 0 m/s | 235 W/m² | - |
| 1778007844 | 15.56° C | 77% | 1015.8 hPa | 0 mm | 0.45 m/s, 149° | 228 W/m² | - |
| 1778007539 | 15.56° C | 77% | 1016 hPa | 0 mm | 0.45 m/s, 64° | 222 W/m² | - |
| 1778007236 | 15.56° C | 77% | 1016 hPa | 0 mm | 0.89 m/s, 315° | 214 W/m² | - |
| 1778006932 | 15° C | 78% | 1016.1 hPa | 0 mm | 0 m/s | 209 W/m² | - |
| 1778006629 | 15° C | 77% | 1015.9 hPa | 0 mm | 0.89 m/s, 188° | 200 W/m² | - |
| 1778006326 | 15.56° C | 77% | 1015.8 hPa | 0 mm | 0.45 m/s, 175° | 214 W/m² | - |
| 1778006023 | 15° C | 77% | 1015.8 hPa | 0 mm | 0.45 m/s, 105° | 210 W/m² | - |
| 1778005720 | 15° C | 79% | 1015.7 hPa | 0 mm | 0 m/s | 200 W/m² | - |
* Rain latest hour (hover to see other rain measurements)
** Current wind speed in m/s (hover to see current wind gust speed)